Time;durP1;ratioP1;P1;durP2;ratioP2;P2;SDS_P1;SDS_P2;PMS_P1;PMS_P2;Temp;Humidity;BMP_temperature;BMP_pressure;BME280_temperature;BME280_humidity;BME280_pressure;Samples;Min_cycle;Max_cycle;Signal;HPM_P1;HPM_P2
2021/07/13 00:02:42;;;;;;;1.50;1.40;;;24.10;61.20;;;;;;6239047;28;20037;-70
2021/07/13 00:05:43;;;;;;;1.45;1.35;;;24.10;61.20;;;;;;6239262;28;20112;-70
2021/07/13 00:08:45;;;;;;;1.40;1.30;;;24.10;61.30;;;;;;6239024;28;20116;-70
2021/07/13 00:11:47;;;;;;;1.33;1.23;;;24.10;61.20;;;;;;6239136;28;20448;-70
2021/07/13 00:14:48;;;;;;;1.63;1.20;;;24.10;61.20;;;;;;6235372;28;20507;-70
2021/07/13 00:17:51;;;;;;;1.60;1.30;;;24.10;61.20;;;;;;6238764;28;20029;-69
2021/07/13 00:20:51;;;;;;;1.50;1.40;;;24.10;61.20;;;;;;6238992;28;20036;-70
2021/07/13 00:23:52;;;;;;;1.30;1.20;;;24.10;61.20;;;;;;6227978;28;20117;-70
2021/07/13 00:26:52;;;;;;;1.67;1.40;;;24.10;61.30;;;;;;6238810;28;20033;-70
2021/07/13 00:29:53;;;;;;;1.02;1.00;;;24.10;61.20;;;;;;6238862;28;20061;-69
2021/07/13 00:32:53;;;;;;;1.30;1.20;;;24.10;61.20;;;;;;6239285;28;20034;-70
2021/07/13 00:35:54;;;;;;;1.55;1.40;;;24.10;61.20;;;;;;6238183;28;20057;-70
2021/07/13 00:38:54;;;;;;;1.55;1.30;;;24.10;61.30;;;;;;6238629;28;20025;-70
2021/07/13 00:41:55;;;;;;;1.27;1.17;;;24.10;61.20;;;;;;6189976;28;20433;-70
2021/07/13 00:44:55;;;;;;;1.77;1.45;;;24.10;61.20;;;;;;6208420;28;20026;-70
2021/07/13 00:47:56;;;;;;;2.03;1.50;;;24.10;61.20;;;;;;6238985;28;20033;-70
2021/07/13 00:50:58;;;;;;;1.40;1.27;;;24.10;61.20;;;;;;6238801;28;20065;-70
2021/07/13 00:54:00;;;;;;;1.20;1.10;;;24.10;61.20;;;;;;6226601;28;20072;-70
2021/07/13 00:57:10;;;;;;;1.75;1.38;;;24.10;61.20;;;;;;6229431;28;20420;-70
2021/07/13 01:00:15;;;;;;;1.65;1.20;;;24.10;61.20;;;;;;6221692;28;20380;-70
2021/07/13 01:03:15;;;;;;;1.40;1.23;;;24.10;62.10;;;;;;6241646;28;20029;-70
2021/07/13 01:06:21;;;;;;;1.25;1.15;;;24.10;61.20;;;;;;6239270;28;20490;-70
2021/07/13 01:09:39;;;;;;;1.20;1.05;;;24.10;61.20;;;;;;6243366;28;20037;-70
2021/07/13 01:12:45;;;;;;;1.17;1.08;;;24.10;61.20;;;;;;6229833;28;20045;-70
2021/07/13 01:15:51;;;;;;;1.50;1.40;;;24.10;61.20;;;;;;6228018;28;20029;-70
2021/07/13 01:19:31;;;;;;;1.50;1.40;;;24.10;61.20;;;;;;6243074;28;20472;-70
2021/07/13 01:22:38;;;;;;;1.63;1.42;;;24.10;61.20;;;;;;6218256;28;20117;-70
2021/07/13 01:25:45;;;;;;;2.03;1.45;;;24.10;61.20;;;;;;6225611;28;20040;-70
2021/07/13 01:28:49;;;;;;;1.60;1.50;;;24.10;61.20;;;;;;6242614;28;20050;-70
2021/07/13 01:31:50;;;;;;;1.50;1.40;;;24.10;61.20;;;;;;6242331;28;20037;-70
2021/07/13 01:35:00;;;;;;;1.13;1.02;;;24.10;61.20;;;;;;6242463;28;20044;-70
2021/07/13 01:38:02;;;;;;;1.20;1.10;;;24.10;61.20;;;;;;6242483;28;20037;-70
2021/07/13 01:41:07;;;;;;;1.40;1.30;;;24.10;61.20;;;;;;6242083;28;20069;-70
2021/07/13 01:44:10;;;;;;;1.27;1.17;;;24.10;61.20;;;;;;6242380;28;20028;-69
2021/07/13 01:47:11;;;;;;;1.33;1.17;;;24.10;61.20;;;;;;6242139;28;20129;-70
2021/07/13 01:50:13;;;;;;;1.67;1.40;;;24.10;61.20;;;;;;6238743;28;20033;-70
2021/07/13 01:53:14;;;;;;;1.50;1.40;;;24.10;61.20;;;;;;6235965;28;20022;-71
2021/07/13 01:56:16;;;;;;;1.27;1.17;;;24.10;61.20;;;;;;6226048;28;20103;-70
2021/07/13 01:59:18;;;;;;;1.05;0.95;;;24.10;61.20;;;;;;6242179;28;20463;-70
2021/07/13 02:02:20;;;;;;;1.30;1.20;;;24.10;61.20;;;;;;6240650;28;20400;-70
2021/07/13 02:05:23;;;;;;;1.40;1.30;;;24.10;61.20;;;;;;6241787;28;20036;-70
2021/07/13 02:08:24;;;;;;;1.27;1.17;;;24.10;61.20;;;;;;6241386;28;20029;-70
2021/07/13 02:11:27;;;;;;;1.75;1.55;;;24.10;61.20;;;;;;6241695;28;20038;-70
2021/07/13 02:14:27;;;;;;;1.45;1.35;;;24.10;61.20;;;;;;6240919;28;20032;-69
2021/07/13 02:17:30;;;;;;;1.40;1.30;;;24.10;61.20;;;;;;6241335;28;20100;-70
2021/07/13 02:20:31;;;;;;;1.48;1.38;;;24.10;61.20;;;;;;6241629;28;20037;-70
2021/07/13 02:23:32;;;;;;;1.33;1.23;;;24.10;61.20;;;;;;6219048;28;20026;-70
2021/07/13 02:27:06;;;;;;;1.27;1.17;;;24.10;61.20;;;;;;6237584;28;20057;-70
2021/07/13 02:30:08;;;;;;;1.48;1.38;;;24.10;61.20;;;;;;6240928;28;20045;-70
2021/07/13 02:33:20;;;;;;;1.30;1.20;;;24.10;61.20;;;;;;6241200;28;20061;-70
2021/07/13 02:36:27;;;;;;;1.27;1.15;;;24.10;61.30;;;;;;6241121;28;20056;-70
2021/07/13 02:39:31;;;;;;;1.75;1.55;;;24.10;61.20;;;;;;6241263;28;20029;-70
2021/07/13 02:42:31;;;;;;;1.23;1.13;;;24.10;61.20;;;;;;6241217;28;20037;-70
2021/07/13 02:45:33;;;;;;;1.35;1.25;;;24.10;61.30;;;;;;6240684;28;20051;-70
2021/07/13 02:48:39;;;;;;;1.33;1.23;;;24.10;61.20;;;;;;6240617;28;20030;-70
2021/07/13 02:51:40;;;;;;;1.10;1.00;;;24.10;61.20;;;;;;6240873;28;20508;-70
2021/07/13 02:54:42;;;;;;;1.33;1.13;;;24.10;61.20;;;;;;6223275;28;20041;-70
2021/07/13 02:57:44;;;;;;;1.20;1.10;;;24.10;61.20;;;;;;6227092;28;20026;-70
2021/07/13 03:00:45;;;;;;;1.77;1.45;;;24.10;61.20;;;;;;6240687;28;20033;-70
2021/07/13 03:03:48;;;;;;;2.05;1.40;;;24.10;61.20;;;;;;6240365;28;20491;-70
2021/07/13 03:06:50;;;;;;;1.50;1.40;;;24.10;61.20;;;;;;6240225;28;20022;-70
2021/07/13 03:09:51;;;;;;;1.30;1.20;;;24.10;61.20;;;;;;6240261;28;20034;-70
2021/07/13 03:12:52;;;;;;;1.50;1.40;;;24.10;61.20;;;;;;6236377;28;20029;-70
2021/07/13 03:15:53;;;;;;;1.30;1.20;;;24.10;61.20;;;;;;6240360;28;20512;-70
2021/07/13 03:18:53;;;;;;;1.35;1.25;;;24.10;61.20;;;;;;6239617;28;20326;-70
2021/07/13 03:21:57;;;;;;;1.20;1.10;;;24.10;61.20;;;;;;6239770;28;20055;-70
2021/07/13 03:24:59;;;;;;;1.63;1.40;;;24.10;61.20;;;;;;6218237;28;20049;-69
2021/07/13 03:28:01;;;;;;;2.30;1.30;;;24.10;61.20;;;;;;6224406;28;20061;-70
2021/07/13 03:31:02;;;;;;;1.35;1.25;;;24.10;61.20;;;;;;6240072;28;20492;-70
2021/07/13 03:34:05;;;;;;;1.80;1.48;;;24.10;61.20;;;;;;6239754;28;20030;-70
2021/07/13 03:37:06;;;;;;;1.40;1.30;;;24.10;61.20;;;;;;6239636;28;20084;-70
2021/07/13 03:40:07;;;;;;;1.35;1.08;;;24.10;61.20;;;;;;6239425;28;20018;-70
2021/07/13 03:43:08;;;;;;;1.25;1.15;;;24.10;61.20;;;;;;6239909;28;20021;-70
2021/07/13 03:46:09;;;;;;;1.30;1.20;;;24.10;61.20;;;;;;6239875;28;20338;-71
2021/07/13 03:49:10;;;;;;;1.50;1.40;;;24.10;61.20;;;;;;6239566;28;20062;-70
2021/07/13 03:52:12;;;;;;;1.33;1.23;;;24.10;61.20;;;;;;6239037;28;20033;-70
2021/07/13 03:55:13;;;;;;;1.27;1.17;;;24.10;61.20;;;;;;6216954;28;20259;-70
2021/07/13 03:58:14;;;;;;;1.35;1.10;;;24.10;61.20;;;;;;6221541;28;20566;-69
2021/07/13 04:01:15;;;;;;;1.38;1.27;;;24.10;61.20;;;;;;6235878;28;20488;-70
2021/07/13 04:04:15;;;;;;;1.30;1.08;;;24.10;61.20;;;;;;6239392;28;20021;-71
2021/07/13 04:07:16;;;;;;;1.35;1.25;;;24.10;61.20;;;;;;6239092;28;20037;-70
2021/07/13 04:10:17;;;;;;;1.50;1.10;;;24.10;61.20;;;;;;6235495;28;20038;-70
2021/07/13 04:13:17;;;;;;;1.45;1.27;;;24.10;61.20;;;;;;6238810;28;20366;-70
2021/07/13 04:16:18;;;;;;;1.40;1.30;;;24.10;61.20;;;;;;6239395;28;20025;-70
2021/07/13 04:19:18;;;;;;;1.30;1.20;;;24.10;61.20;;;;;;6239378;28;20037;-70
2021/07/13 04:22:19;;;;;;;1.55;1.45;;;24.10;61.20;;;;;;6238946;28;20040;-70
2021/07/13 04:25:20;;;;;;;1.40;1.30;;;24.10;61.20;;;;;;6234989;28;20029;-70
2021/07/13 04:28:20;;;;;;;1.50;1.25;;;24.10;61.20;;;;;;6238633;28;20060;-70
2021/07/13 04:31:21;;;;;;;1.40;1.30;;;24.10;61.20;;;;;;6220582;28;20093;-70
2021/07/13 04:34:22;;;;;;;1.55;1.40;;;24.10;61.20;;;;;;6225545;28;20067;-70
2021/07/13 04:37:22;;;;;;;1.27;1.17;;;24.10;61.20;;;;;;6240190;28;20033;-70
2021/07/13 04:40:23;;;;;;;1.20;1.10;;;24.10;61.20;;;;;;6243871;28;20292;-70
2021/07/13 04:43:24;;;;;;;1.23;1.13;;;24.10;61.10;;;;;;6243980;28;20209;-70
2021/07/13 04:46:24;;;;;;;1.38;1.27;;;24.10;61.20;;;;;;6212007;28;20116;-70
2021/07/13 04:49:31;;;;;;;1.27;1.17;;;24.10;61.20;;;;;;6227141;28;20029;-70
2021/07/13 04:52:31;;;;;;;1.38;1.27;;;24.10;61.20;;;;;;6223751;28;20523;-70
2021/07/13 04:55:32;;;;;;;1.23;1.13;;;24.10;61.20;;;;;;6235794;28;20029;-70
2021/07/13 04:58:32;;;;;;;1.15;1.05;;;24.10;61.30;;;;;;6242836;28;20416;-70
2021/07/13 05:01:33;;;;;;;0.98;0.90;;;24.10;61.20;;;;;;6229121;28;20037;-70
2021/07/13 05:04:33;;;;;;;1.48;1.00;;;24.10;61.20;;;;;;6226164;28;20033;-70
2021/07/13 05:07:38;;;;;;;1.40;1.30;;;24.10;61.20;;;;;;6235296;28;20072;-70
2021/07/13 05:10:39;;;;;;;1.55;1.45;;;24.10;61.20;;;;;;6234904;28;20477;-70
2021/07/13 05:13:39;;;;;;;1.25;1.15;;;24.20;61.40;;;;;;6243641;28;20049;-70
2021/07/13 05:16:40;;;;;;;2.42;1.30;;;24.10;61.20;;;;;;6242782;28;20080;-70
2021/07/13 05:19:43;;;;;;;1.40;1.30;;;24.20;61.30;;;;;;6243040;28;20310;-70
2021/07/13 05:22:44;;;;;;;1.30;1.20;;;24.10;61.20;;;;;;6242722;28;20481;-70
2021/07/13 05:25:44;;;;;;;1.98;1.60;;;24.10;61.20;;;;;;6242671;28;20092;-70
2021/07/13 05:28:48;;;;;;;1.25;1.15;;;24.10;61.20;;;;;;6243255;28;20072;-70
2021/07/13 05:31:49;;;;;;;4.25;1.48;;;24.10;61.20;;;;;;6242861;28;20038;-71
2021/07/13 05:34:49;;;;;;;1.30;1.20;;;24.10;61.20;;;;;;6242857;28;20428;-70
2021/07/13 05:37:50;;;;;;;1.60;1.50;;;24.10;61.20;;;;;;6243330;28;20027;-70
2021/07/13 05:40:50;;;;;;;1.27;1.17;;;24.10;61.20;;;;;;6244453;28;20030;-70
2021/07/13 05:43:52;;;;;;;1.77;1.65;;;24.10;61.20;;;;;;6218512;28;20033;-70
2021/07/13 05:46:52;;;;;;;1.38;1.27;;;24.10;61.20;;;;;;6239566;28;20214;-70
2021/07/13 05:49:54;;;;;;;1.50;1.40;;;24.10;61.20;;;;;;6241650;28;20480;-70
2021/07/13 05:52:57;;;;;;;1.65;1.52;;;24.10;61.20;;;;;;6239251;28;20292;-70
2021/07/13 05:55:57;;;;;;;1.60;1.35;;;24.10;61.20;;;;;;6238535;28;20082;-70
2021/07/13 05:58:58;;;;;;;1.50;1.40;;;24.10;61.20;;;;;;6241229;28;20022;-70
2021/07/13 06:01:58;;;;;;;1.30;1.20;;;24.10;61.20;;;;;;6216440;28;20481;-70
2021/07/13 06:04:59;;;;;;;1.90;1.33;;;24.10;61.20;;;;;;6214364;28;20040;-70
2021/07/13 06:07:59;;;;;;;1.65;1.30;;;24.10;61.20;;;;;;6235897;28;20026;-69
2021/07/13 06:11:00;;;;;;;1.60;1.40;;;24.10;61.20;;;;;;6230122;28;20119;-69
2021/07/13 06:14:00;;;;;;;1.63;1.52;;;24.10;61.20;;;;;;6244821;28;20477;-70
2021/07/13 06:17:01;;;;;;;1.50;1.40;;;24.10;61.20;;;;;;6244038;28;20366;-70
2021/07/13 06:20:03;;;;;;;1.75;1.48;;;24.10;61.20;;;;;;6244404;28;20036;-70
2021/07/13 06:23:04;;;;;;;2.00;1.63;;;24.10;61.20;;;;;;6238622;28;20029;-70
2021/07/13 06:26:04;;;;;;;1.45;1.35;;;24.10;61.20;;;;;;6228485;28;20022;-70
2021/07/13 06:29:05;;;;;;;1.65;1.55;;;24.10;61.20;;;;;;6244257;28;20046;-70
2021/07/13 06:32:06;;;;;;;1.48;1.38;;;24.10;61.20;;;;;;6243928;28;20033;-69
2021/07/13 06:35:07;;;;;;;1.50;1.40;;;24.10;61.20;;;;;;6243826;28;20025;-70
2021/07/13 06:38:07;;;;;;;2.58;1.35;;;24.10;61.20;;;;;;6206552;28;20113;-70
2021/07/13 06:41:08;;;;;;;2.22;1.65;;;24.10;61.20;;;;;;6226677;28;20135;-70
2021/07/13 06:44:10;;;;;;;1.95;1.77;;;24.10;61.20;;;;;;6244489;28;20028;-70
2021/07/13 06:47:11;;;;;;;2.05;1.52;;;24.10;61.20;;;;;;6243342;28;20561;-69
2021/07/13 06:50:12;;;;;;;1.70;1.45;;;24.10;61.20;;;;;;6243803;28;20037;-70
2021/07/13 06:53:13;;;;;;;1.52;1.33;;;24.10;61.10;;;;;;6237458;28;20480;-70
2021/07/13 06:56:13;;;;;;;1.83;1.58;;;24.10;61.20;;;;;;6225016;28;20034;-70
2021/07/13 06:59:14;;;;;;;1.33;1.23;;;24.10;61.20;;;;;;6243144;28;20029;-70
2021/07/13 07:02:14;;;;;;;1.50;1.33;;;24.10;61.20;;;;;;6242783;28;20038;-70
2021/07/13 07:05:15;;;;;;;1.65;1.55;;;24.10;61.20;;;;;;6243203;28;20026;-70
2021/07/13 07:08:16;;;;;;;1.83;1.50;;;24.10;61.20;;;;;;6243007;28;20026;-70
2021/07/13 07:11:16;;;;;;;1.27;1.17;;;24.10;61.20;;;;;;6243184;28;20292;-70
2021/07/13 07:14:17;;;;;;;1.77;1.50;;;24.10;61.20;;;;;;6243828;28;20354;-70
2021/07/13 07:17:17;;;;;;;1.30;1.20;;;24.10;61.20;;;;;;6242822;28;20416;-70
2021/07/13 07:20:25;;;;;;;1.23;1.13;;;24.10;61.20;;;;;;6242736;28;20227;-69
2021/07/13 07:23:26;;;;;;;1.40;1.30;;;24.10;61.20;;;;;;6234063;28;20018;-70
2021/07/13 07:26:26;;;;;;;1.60;1.30;;;24.10;61.20;;;;;;6221834;28;20550;-70
2021/07/13 07:29:27;;;;;;;1.70;1.58;;;24.10;61.10;;;;;;6242695;28;20049;-69
2021/07/13 07:32:27;;;;;;;1.42;1.33;;;24.10;61.10;;;;;;6242459;28;20172;-70
2021/07/13 07:35:29;;;;;;;2.03;1.30;;;24.10;61.10;;;;;;6242452;28;20033;-69
2021/07/13 07:38:29;;;;;;;1.30;1.20;;;24.10;61.10;;;;;;6242401;28;20075;-69
2021/07/13 07:41:30;;;;;;;1.48;1.38;;;24.10;61.10;;;;;;6233623;28;20029;-70
2021/07/13 07:44:30;;;;;;;1.52;1.30;;;24.10;61.20;;;;;;6242441;28;20091;-70
2021/07/13 07:47:31;;;;;;;1.40;1.30;;;24.10;61.20;;;;;;6241890;28;20392;-69
2021/07/13 07:50:32;;;;;;;1.35;1.25;;;24.10;61.20;;;;;;6242593;28;20041;-70
2021/07/13 07:53:32;;;;;;;1.42;1.33;;;24.10;61.20;;;;;;6232947;28;20026;-70
2021/07/13 07:56:34;;;;;;;1.63;1.52;;;24.10;61.20;;;;;;6217903;28;20650;-69
2021/07/13 07:59:35;;;;;;;1.60;1.50;;;24.10;61.20;;;;;;6241915;28;20021;-70
2021/07/13 08:02:36;;;;;;;1.58;1.48;;;24.10;61.10;;;;;;6242204;28;20101;-70
2021/07/13 08:05:37;;;;;;;1.30;1.20;;;24.10;61.10;;;;;;6228988;28;20044;-69
2021/07/13 08:08:37;;;;;;;1.77;1.40;;;24.10;61.10;;;;;;6233377;28;20044;-70
2021/07/13 08:11:40;;;;;;;1.65;1.55;;;24.10;61.10;;;;;;6241555;28;20181;-69
2021/07/13 08:14:41;;;;;;;1.50;1.40;;;24.10;61.20;;;;;;6241721;28;20036;-70
2021/07/13 08:17:43;;;;;;;1.58;1.48;;;24.10;61.20;;;;;;6241997;28;20029;-69
2021/07/13 08:20:43;;;;;;;1.60;1.27;;;24.10;61.10;;;;;;6241998;28;20167;-69
2021/07/13 08:23:44;;;;;;;1.40;1.30;;;24.10;62.00;;;;;;6230930;28;20033;-69
2021/07/13 08:26:46;;;;;;;1.35;1.25;;;24.10;61.10;;;;;;6221728;28;20026;-70
2021/07/13 08:29:47;;;;;;;1.40;1.30;;;24.10;61.10;;;;;;6241503;28;20025;-70
2021/07/13 08:32:48;;;;;;;1.90;1.67;;;24.10;61.20;;;;;;6241089;28;20033;-70
2021/07/13 08:35:48;;;;;;;1.23;1.13;;;24.10;61.10;;;;;;6241410;28;20499;-69
2021/07/13 08:38:49;;;;;;;1.40;1.30;;;24.10;61.20;;;;;;6241229;28;20061;-70
2021/07/13 08:41:50;;;;;;;2.20;1.58;;;24.10;61.20;;;;;;6242030;28;20033;-70
2021/07/13 08:44:50;;;;;;;1.30;1.20;;;24.10;62.00;;;;;;6241552;28;20017;-69
2021/07/13 08:47:52;;;;;;;1.25;1.15;;;24.10;61.10;;;;;;6240903;28;20554;-70
2021/07/13 08:51:00;;;;;;;1.15;1.05;;;24.10;61.10;;;;;;6243747;28;20037;-71
2021/07/13 08:54:02;;;;;;;1.48;1.30;;;24.10;61.10;;;;;;6229015;28;20037;-69
2021/07/13 08:57:03;;;;;;;1.70;1.55;;;24.10;61.10;;;;;;6217023;28;20026;-70
2021/07/13 09:00:10;;;;;;;1.30;1.20;;;24.10;61.10;;;;;;6236866;28;20493;-70
2021/07/13 09:03:19;;;;;;;1.27;1.17;;;24.10;61.10;;;;;;6241126;28;20068;-70
2021/07/13 09:06:20;;;;;;;1.30;1.20;;;24.10;61.10;;;;;;6241116;28;20370;-69
2021/07/13 09:09:24;;;;;;;1.20;1.10;;;24.10;61.10;;;;;;6241180;28;20120;-70
2021/07/13 09:12:26;;;;;;;1.20;1.10;;;24.10;61.10;;;;;;6241192;28;20041;-70
2021/07/13 09:15:27;;;;;;;4.15;1.17;;;24.10;61.20;;;;;;6241096;28;20036;-69
2021/07/13 09:18:38;;;;;;;1.27;1.17;;;24.10;61.10;;;;;;6240932;28;20029;-70
2021/07/13 09:21:41;;;;;;;1.38;1.23;;;24.10;61.10;;;;;;6241083;28;20026;-70
2021/07/13 09:24:42;;;;;;;1.40;1.30;;;24.10;62.00;;;;;;6239401;28;20504;-70
2021/07/13 09:27:42;;;;;;;0.95;0.90;;;24.10;61.10;;;;;;6245378;28;20180;-70
2021/07/13 09:30:46;;;;;;;1.35;1.25;;;24.10;61.20;;;;;;6245440;28;20056;-70
2021/07/13 09:33:47;;;;;;;1.20;1.10;;;24.10;61.10;;;;;;6245242;28;20028;-70
2021/07/13 09:36:52;;;;;;;1.20;1.10;;;24.10;61.20;;;;;;6245487;28;20029;-70
2021/07/13 09:39:54;;;;;;;;;;;24.10;61.10;;;;;;6245285;28;20233;-70
2021/07/13 09:42:55;;;;;;;1.30;1.20;;;24.10;61.10;;;;;;6245244;28;20296;-70
2021/07/13 09:45:56;;;;;;;1.10;0.95;;;24.10;61.10;;;;;;6244782;28;20022;-70
2021/07/13 09:49:19;;;;;;;1.20;1.10;;;24.10;61.10;;;;;;6244257;28;20042;-70
2021/07/13 09:52:27;;;;;;;1.20;1.10;;;24.10;61.10;;;;;;6245021;28;20061;-69
2021/07/13 09:55:28;;;;;;;1.20;1.10;;;24.10;61.10;;;;;;6235795;28;20040;-70
2021/07/13 09:58:28;;;;;;;1.08;0.98;;;24.10;61.10;;;;;;6245300;28;20503;-70
2021/07/13 10:01:29;;;;;;;0.77;0.77;;;24.10;61.20;;;;;;6238001;28;20333;-70
2021/07/13 10:04:31;;;;;;;1.20;1.10;;;24.10;61.10;;;;;;6227363;28;20033;-69
2021/07/13 10:07:33;;;;;;;1.23;1.13;;;24.10;61.10;;;;;;6244385;28;20025;-69
2021/07/13 10:10:38;;;;;;;1.35;1.20;;;24.10;61.10;;;;;;6244005;28;20021;-71
2021/07/13 10:13:39;;;;;;;1.13;0.93;;;24.10;61.10;;;;;;6244453;28;20104;-70
2021/07/13 10:16:39;;;;;;;1.42;1.33;;;24.10;61.10;;;;;;6244288;28;20188;-71
2021/07/13 10:19:53;;;;;;;1.40;1.20;;;24.10;61.10;;;;;;6244220;28;20526;-70
2021/07/13 10:22:55;;;;;;;1.60;1.30;;;24.10;61.10;;;;;;6240278;28;20099;-70
2021/07/13 10:25:56;;;;;;;1.40;1.27;;;24.10;61.10;;;;;;6234484;28;20388;-70
2021/07/13 10:28:57;;;;;;;1.15;1.05;;;24.10;61.20;;;;;;6244024;28;20057;-69
2021/07/13 10:32:07;;;;;;;1.30;1.05;;;24.10;61.10;;;;;;6243331;28;20041;-70
2021/07/13 10:35:24;;;;;;;1.17;1.08;;;24.10;61.10;;;;;;6243131;28;20108;-69
2021/07/13 10:38:24;;;;;;;1.13;1.02;;;24.10;61.10;;;;;;6259268;28;20029;-70
2021/07/13 10:41:30;;;;;;;1.20;1.10;;;24.10;61.20;;;;;;6244355;28;20029;-70
2021/07/13 10:44:47;;;;;;;1.10;1.00;;;24.10;61.10;;;;;;6243279;28;20022;-70
2021/07/13 10:48:17;;;;;;;1.20;1.10;;;24.10;61.20;;;;;;6243408;28;20044;-69
2021/07/13 10:51:36;;;;;;;1.02;0.93;;;24.10;61.10;;;;;;6243392;28;20076;-70
2021/07/13 10:54:45;;;;;;;1.10;1.00;;;24.10;61.20;;;;;;6226134;28;20121;-69
2021/07/13 10:58:14;;;;;;;1.30;1.10;;;24.10;61.10;;;;;;6243689;28;20109;-69
2021/07/13 11:01:20;;;;;;;1.13;1.00;;;24.10;61.10;;;;;;6242978;28;20109;-69
2021/07/13 11:04:24;;;;;;;1.15;1.05;;;24.10;61.10;;;;;;6243539;28;20481;-70
2021/07/13 11:07:39;;;;;;;1.10;1.00;;;24.10;61.10;;;;;;6242317;28;20373;-70
2021/07/13 11:10:39;;;;;;;1.20;1.10;;;24.10;61.10;;;;;;6206932;28;20571;-70
2021/07/13 11:13:47;;;;;;;1.17;1.08;;;24.10;61.10;;;;;;6243563;28;20349;-70
2021/07/13 11:16:51;;;;;;;1.20;1.10;;;24.10;62.00;;;;;;6242771;28;20026;-71
2021/07/13 11:19:57;;;;;;;1.38;1.20;;;24.10;61.10;;;;;;6242785;28;20034;-69
2021/07/13 11:22:58;;;;;;;1.10;1.00;;;24.10;61.10;;;;;;6238359;28;20033;-70
2021/07/13 11:26:06;;;;;;;1.17;1.08;;;24.10;61.10;;;;;;6225233;28;20022;-70
2021/07/13 11:29:15;;;;;;;1.20;1.10;;;24.10;61.10;;;;;;6242570;28;20091;-70
2021/07/13 11:32:15;;;;;;;1.13;1.00;;;24.10;61.10;;;;;;6242193;28;20041;-70
2021/07/13 11:35:16;;;;;;;1.13;1.02;;;24.10;61.10;;;;;;6242238;28;20543;-69
2021/07/13 11:38:27;;;;;;;1.00;0.90;;;24.10;61.20;;;;;;6242152;28;20065;-70
2021/07/13 11:41:29;;;;;;;0.95;0.90;;;24.10;61.10;;;;;;6242112;28;20029;-70
2021/07/13 11:44:30;;;;;;;0.80;0.80;;;24.10;61.10;;;;;;6242435;28;20079;-70
2021/07/13 11:47:30;;;;;;;0.80;0.80;;;24.10;61.10;;;;;;6210464;28;20026;-70
2021/07/13 11:50:31;;;;;;;0.77;0.77;;;24.10;61.10;;;;;;6216252;28;20041;-69
2021/07/13 11:53:32;;;;;;;1.20;1.10;;;24.10;61.20;;;;;;6226961;28;20584;-70
2021/07/13 11:56:34;;;;;;;1.00;0.90;;;24.10;61.10;;;;;;6242923;28;20025;-70
2021/07/13 11:59:36;;;;;;;1.05;0.95;;;24.10;61.10;;;;;;6241322;28;20370;-70
2021/07/13 12:02:37;;;;;;;1.30;1.10;;;24.10;61.10;;;;;;6238734;28;20033;-70
2021/07/13 12:05:38;;;;;;;1.08;0.98;;;24.10;61.10;;;;;;6216544;28;20735;-69
2021/07/13 12:08:39;;;;;;;1.00;0.90;;;24.10;61.10;;;;;;6239253;28;20053;-70
2021/07/13 12:11:46;;;;;;;0.95;0.80;;;24.10;61.10;;;;;;6227264;28;20094;-69
2021/07/13 12:14:55;;;;;;;1.10;1.00;;;24.10;61.10;;;;;;6242224;28;20049;-69
2021/07/13 12:17:55;;;;;;;0.88;0.82;;;24.10;61.10;;;;;;6240737;28;20017;-69
2021/07/13 12:20:56;;;;;;;1.17;1.08;;;24.10;61.10;;;;;;6241889;28;20030;-70
2021/07/13 12:23:58;;;;;;;2.22;0.95;;;24.10;61.10;;;;;;6241931;28;20164;-70
2021/07/13 12:27:00;;;;;;;1.15;1.05;;;24.10;61.10;;;;;;6241374;28;20056;-69
2021/07/13 12:30:14;;;;;;;1.20;1.10;;;24.10;61.00;;;;;;6256811;28;20065;-69
2021/07/13 12:33:21;;;;;;;0.95;0.85;;;24.10;61.00;;;;;;6241845;28;20064;-69
2021/07/13 12:36:27;;;;;;;0.85;0.85;;;24.10;61.10;;;;;;6241146;28;20396;-69
2021/07/13 12:39:27;;;;;;;1.17;1.08;;;24.10;61.10;;;;;;6241605;28;20022;-69
2021/07/13 12:42:33;;;;;;;0.85;0.85;;;24.10;61.10;;;;;;6224464;28;20025;-69
2021/07/13 12:45:34;;;;;;;1.05;0.95;;;24.20;61.20;;;;;;6241322;28;20411;-70
2021/07/13 12:48:37;;;;;;;1.00;0.90;;;24.10;61.10;;;;;;6241648;28;20026;-70
2021/07/13 12:51:38;;;;;;;0.93;0.90;;;24.10;61.10;;;;;;6241928;28;20039;-70
2021/07/13 12:54:58;;;;;;;0.95;0.80;;;24.10;61.10;;;;;;6223704;28;20390;-69
2021/07/13 12:58:21;;;;;;;1.08;0.98;;;24.10;61.10;;;;;;6227868;28;20026;-69
2021/07/13 13:01:25;;;;;;;1.17;1.08;;;24.10;61.10;;;;;;6246666;28;20033;-69
2021/07/13 13:04:25;;;;;;;0.93;0.90;;;24.10;61.10;;;;;;6246411;28;20048;-70
2021/07/13 13:07:26;;;;;;;1.17;1.02;;;24.10;61.10;;;;;;6245028;28;20041;-69
2021/07/13 13:10:27;;;;;;;0.90;0.90;;;24.10;61.10;;;;;;6248796;28;20025;-69
2021/07/13 13:13:33;;;;;;;0.90;0.90;;;24.10;61.10;;;;;;6262440;28;20076;-69
2021/07/13 13:16:41;;;;;;;1.42;0.88;;;24.10;61.10;;;;;;6264835;28;20031;-69
2021/07/13 13:19:44;;;;;;;0.80;0.80;;;24.10;61.10;;;;;;6264600;28;20120;-69
2021/07/13 13:22:49;;;;;;;0.93;0.93;;;24.10;62.00;;;;;;6253151;28;20034;-69
2021/07/13 13:25:49;;;;;;;0.85;0.85;;;24.10;61.20;;;;;;6221834;28;20026;-70
2021/07/13 13:28:51;;;;;;;1.23;1.13;;;24.10;61.00;;;;;;6234590;28;20404;-70
2021/07/13 13:31:51;;;;;;;1.30;1.08;;;24.20;61.20;;;;;;6246160;28;20033;-69
2021/07/13 13:34:52;;;;;;;1.27;1.02;;;24.10;61.10;;;;;;6245888;28;20029;-69
2021/07/13 13:38:07;;;;;;;0.85;0.85;;;24.10;61.10;;;;;;6245770;28;20025;-70
2021/07/13 13:41:08;;;;;;;1.10;1.00;;;24.10;61.10;;;;;;6245830;28;20424;-69
2021/07/13 13:44:09;;;;;;;1.13;1.00;;;24.10;61.10;;;;;;6245574;28;20359;-69
2021/07/13 13:47:09;;;;;;;0.80;0.80;;;24.10;61.20;;;;;;6245293;28;20128;-70
2021/07/13 13:50:10;;;;;;;0.98;0.88;;;24.20;61.20;;;;;;6244725;28;20381;-70
2021/07/13 13:53:10;;;;;;;1.10;1.00;;;24.10;61.10;;;;;;6243874;28;20018;-70
2021/07/13 13:56:13;;;;;;;1.23;0.80;;;24.10;61.10;;;;;;6244918;28;20041;-71
2021/07/13 13:59:14;;;;;;;0.80;0.80;;;24.10;61.20;;;;;;6244709;28;20025;-69
2021/07/13 14:02:14;;;;;;;0.90;0.80;;;24.10;61.10;;;;;;6245237;28;20056;-69
2021/07/13 14:05:16;;;;;;;0.93;0.85;;;24.10;61.10;;;;;;6241672;28;20060;-69
2021/07/13 14:08:18;;;;;;;0.80;0.80;;;24.10;61.10;;;;;;6244729;28;20025;-69
2021/07/13 14:11:19;;;;;;;0.90;0.90;;;24.10;61.10;;;;;;6243567;28;20052;-70
2021/07/13 14:14:21;;;;;;;0.88;0.80;;;24.10;61.10;;;;;;6245089;28;20029;-69
2021/07/13 14:17:22;;;;;;;1.85;0.82;;;24.10;61.10;;;;;;6230051;28;20029;-70
2021/07/13 14:20:23;;;;;;;1.25;0.90;;;24.10;61.20;;;;;;6238252;28;20025;-69
2021/07/13 14:23:24;;;;;;;1.02;0.80;;;24.10;61.10;;;;;;6237040;28;20048;-69
2021/07/13 14:26:24;;;;;;;1.02;0.95;;;24.10;61.10;;;;;;6244464;28;20048;-70
2021/07/13 14:29:25;;;;;;;1.05;0.95;;;24.10;61.00;;;;;;6243807;28;20057;-69
2021/07/13 14:32:25;;;;;;;0.80;0.80;;;24.10;61.20;;;;;;6244198;28;20112;-70
2021/07/13 14:35:26;;;;;;;0.93;0.85;;;24.10;61.10;;;;;;6243959;28;20033;-69
2021/07/13 14:38:27;;;;;;;0.80;0.80;;;24.10;61.10;;;;;;6244061;28;20349;-70
2021/07/13 14:41:27;;;;;;;0.98;0.88;;;24.10;61.10;;;;;;6244094;28;20116;-70
2021/07/13 14:44:28;;;;;;;1.00;0.90;;;24.10;61.10;;;;;;6244199;28;20683;-69
2021/07/13 14:47:29;;;;;;;0.88;0.88;;;24.10;61.10;;;;;;6243677;28;20050;-70
2021/07/13 14:50:29;;;;;;;0.73;0.73;;;24.10;61.10;;;;;;6243444;28;20439;-70
2021/07/13 14:53:30;;;;;;;0.80;0.70;;;24.10;61.20;;;;;;6235812;28;20034;-70
2021/07/13 14:56:31;;;;;;;1.00;0.90;;;24.10;61.10;;;;;;6241215;28;20035;-69
2021/07/13 14:59:31;;;;;;;1.10;1.00;;;24.10;61.10;;;;;;6244227;28;20025;-69
2021/07/13 15:02:32;;;;;;;1.10;0.90;;;24.10;61.10;;;;;;6243603;28;20082;-69
2021/07/13 15:05:32;;;;;;;0.77;0.77;;;24.10;61.10;;;;;;6239345;28;20037;-69
2021/07/13 15:08:33;;;;;;;0.70;0.70;;;24.10;61.10;;;;;;6243875;28;20029;-69
2021/07/13 15:11:33;;;;;;;0.80;0.80;;;24.10;61.10;;;;;;6243370;28;20088;-70
2021/07/13 15:14:34;;;;;;;0.77;0.77;;;24.10;61.20;;;;;;6243191;28;20033;-69
2021/07/13 15:17:34;;;;;;;0.70;0.70;;;24.10;61.10;;;;;;6243614;28;20033;-69
2021/07/13 15:20:36;;;;;;;1.05;0.95;;;24.10;61.10;;;;;;6243649;28;20067;-70
2021/07/13 15:23:36;;;;;;;0.70;0.70;;;24.10;61.00;;;;;;6233577;28;20076;-69
2021/07/13 15:26:37;;;;;;;0.70;0.70;;;24.10;61.10;;;;;;6237237;28;20033;-69
2021/07/13 15:29:38;;;;;;;0.77;0.70;;;24.10;61.10;;;;;;6242729;28;20512;-69
2021/07/13 15:32:38;;;;;;;0.70;0.70;;;24.10;61.00;;;;;;6242922;28;20471;-69
2021/07/13 15:35:40;;;;;;;0.85;0.77;;;24.20;61.20;;;;;;6242742;28;20440;-69
2021/07/13 15:38:41;;;;;;;0.70;0.70;;;24.10;61.10;;;;;;6242960;28;20492;-70
2021/07/13 15:41:41;;;;;;;0.77;0.73;;;24.10;61.10;;;;;;6242925;28;20083;-69
2021/07/13 15:44:42;;;;;;;0.95;0.82;;;24.10;61.10;;;;;;6242998;28;20029;-69
2021/07/13 15:47:44;;;;;;;0.75;0.75;;;24.10;61.10;;;;;;6242699;28;20033;-70
2021/07/13 15:50:47;;;;;;;0.93;0.90;;;24.10;61.00;;;;;;6242638;28;20033;-70
2021/07/13 15:53:48;;;;;;;0.70;0.70;;;24.10;61.10;;;;;;6242139;28;20029;-69